オークランド の空港の天気 - METARとTAF

オークランド国際空港 ( NZAA / AKL ) - ニュージーランド オークランド|オークランド
飛行場実況気象(Metar)
観測時間12/14 19:00 NZDT (12/14 06:00 UTC)
風向・風速北北東 6m/s
視程10km以上
天気現象
少しの雲 雲底高度 1680m
少しの雲 雲底高度 610m
気温21℃
湿度73%
気圧1016hPa
METARNZAA 140600Z AUTO 02012KT 9999 FEW055/// FEW020CB 21/16 Q1016 TEMPO 2500 TSRAGS SCT020CB
過去の天気等 Google飛行場航空写真 Wunderground天気予報

過去48時間のMETAR

飛行場予報(TAF)
発表時間: 12/14 18:05 NZDT (12/14 05:05 UTC)
予報対象時間: 14日19時 NZDT ~ 15日19時 NZDT
風向・風速北北東 4m/s
視程10km以上
天気現象弱いしゅう雨
全天の4割程度の雲 雲底高度 910m
全天の8割程度の雲 雲底高度 1520m
14日19時 NZDT ~ 15日1時 NZDT に一時的に
風向・風速北北東 8m/s 瞬間風速 13m/s
視程5000m
天気現象しゅう雨
少しの積乱雲 雲底高度 910m
14日19時 NZDT ~ 14日21時 NZDT に 確率 40% で一時的に
視程2500m
天気現象雷雨ひょう
全天の4割程度の積乱雲 雲底高度 610m
15日10時 NZDT ~ 15日19時 NZDT に一時的に
視程6000m
天気現象しゅう雨
少しの積乱雲 雲底高度 610m
15日13時 NZDT ~ 15日19時 NZDT に 確率 40% で一時的に
風向・風速北北東 8m/s 瞬間風速 13m/s
視程2500m
天気現象雷雨ひょう
全天の4割程度の積乱雲 雲底高度 610m
TAF NZAA 140505Z 1406/1506 02008KT 9999 -SHRA SCT030 BKN050
TEMPO 1406/1412 02015G25KT 5000 SHRA FEW030CB
PROB40 TEMPO 1406/1408 2500 TSRAGR SCT020CB
TEMPO 1421/1506 6000 SHRA FEW020CB
PROB40 TEMPO 1500/1506 02015G25KT 2500 TSRAGR SCT020CB